Pagrindinis puslapis
METAR-TAF:

METAR-TAF

Oro uostai :

Kišiniovas, Moldavija

platuma: 46-55-40N, ilguma: 028-55-51E, Aukštis: 122 m

Dabartinis oras

Ataskaita buvo paskelbta 26 minutes, ne 04:00 UTC
Vėjas 8 kt iš Vakarų/Pietvakarių
Temperatūra -2°C
Drėgmė 93%
Slėgis 1015 hPa
Matomumas 10 km arba daugiau
nėra debesų žemiau 1500 m ir nėra kamuolinių lietaus debesų

METAR: LUKK 220400Z 25008KT CAVOK M02/M03 Q1015 R08/390145 NOSIG

Laikas: 06:26 (04:26 UTC)

Prognozė

Ataskaita buvo paskelbta 5 valandos ir 6 minutes, ne 23:20 UTC
Prognozė galioja nuo 22 metu 00 UTC su 22 metu 24 UTC
Vėjas 8 kt iš Pietų/Pietvakarių
Matomumas 10 km arba daugiau
nėra debesų žemiau 1500 m ir nėra kamuolinių lietaus debesų

TAF: LUKK 212320Z 2200/2224 20008KT CAVOK

Orai ataskaitas ir orų prognozės (METAR, TAF).

turimą stotys yra geltonos ir raudonos taškus žemėlapyje.

Perkelti pele per norėdami pamatyti stoties vardą.

Tada spustelėkite, norėdami matyti oro stebėjimo ir prognozės.

Norėdami pakeisti žemėlapį: spustelėkite ant žalios mygtukų su juodo kryžiaus žemyn,; žalią mygtuką su brūkšneliu, jei norite nutolinti; arba žalių rodyklių gretimoms žemėlapius.


METAR-TAF: